Crescent Heights, Texas
Current Conditions -  °F | °C
As of 4:55 PM on Saturday 25 Oct 2014 (Local Time) from KF44 Reporting Station
Clear Clear  
Wind Chill: 82°   Ceiling: Unl
Heat Index: 83°   Visibility: 10mi
Dew Point: 61°   Wind: 5mph
Humidity: 48%   Direction: 170°S
Pressure: 30.07"   Gusts: NA
Location:  32.2052°N, 95.8517°W
Report Text: KF44 252155Z AUTO 17004KT 10SM CLR 28/16 A3007 RMK AO2
Loading
Personal Weather Stations






























Interactive Weather Map
Tropical Storm Tracking
New forecast layout! Learn more

10-Day Weather Forecast

Advertisements
Track Severe Weather on mobile